createdAt,value
2022-08-20T07:12:29.894Z,37.48
2022-08-20T07:15:54.871Z,37.48
2022-08-20T07:19:09.878Z,55.62
2022-08-20T07:22:33.902Z,55.68
2022-08-20T07:25:45.985Z,55.49
2022-08-20T07:29:11.901Z,55.50
2022-08-20T07:32:18.106Z,55.41
2022-08-20T07:35:41.948Z,55.27
2022-08-20T07:38:53.980Z,55.21
2022-08-20T07:42:06.939Z,55.17
2022-08-20T07:45:21.042Z,55.08
2022-08-20T07:48:44.952Z,55.00
2022-08-20T07:51:56.959Z,54.78
2022-08-20T07:55:08.991Z,54.79
2022-08-20T07:58:21.019Z,55.03
2022-08-20T08:01:47.016Z,55.24
2022-08-20T08:05:00.000Z,55.28
2022-08-20T08:08:12.027Z,55.12
2022-08-20T08:11:26.067Z,55.05
2022-08-20T08:14:38.025Z,54.67
2022-08-20T08:18:04.034Z,54.29
2022-08-20T08:21:16.038Z,54.14
2022-08-20T08:24:41.082Z,53.64
2022-08-20T08:27:53.095Z,53.31
2022-08-20T08:31:06.119Z,52.84
2022-08-20T09:32:36.254Z,51.49
2022-08-20T09:35:49.302Z,51.49
2022-08-20T09:38:50.342Z,42.86
2022-08-20T09:42:03.328Z,41.74
2022-08-20T09:45:15.334Z,41.58
2022-08-20T09:48:41.398Z,41.30
2022-08-20T09:51:42.322Z,40.69
2022-08-20T09:55:07.357Z,39.29
2022-08-20T09:58:19.370Z,39.33
2022-08-20T10:01:43.468Z,39.19
2022-08-20T10:05:12.335Z,39.51
2022-08-20T10:08:22.402Z,38.76
2022-08-20T10:11:35.428Z,38.38
2022-08-20T10:14:36.415Z,37.30
2022-08-20T10:18:01.436Z,37.08
2022-08-20T10:21:14.534Z,36.29
2022-08-20T10:24:26.461Z,37.23
2022-08-20T10:27:27.476Z,36.35
2022-08-20T10:30:51.426Z,35.08
2022-08-20T10:34:03.496Z,36.08
2022-08-20T10:37:29.486Z,33.52
2022-08-20T10:40:29.478Z,35.73
2022-08-20T10:43:54.467Z,34.64
2022-08-20T10:46:57.124Z,34.30
2022-08-20T10:50:19.544Z,34.83
2022-08-20T10:53:33.550Z,34.02
2022-08-20T10:56:46.499Z,34.17
2022-08-20T11:00:02.713Z,34.38
2022-08-20T11:03:26.607Z,34.21
2022-08-20T11:06:27.566Z,32.86
2022-08-20T11:09:55.543Z,33.62
2022-08-20T11:13:07.612Z,32.53
2022-08-20T11:16:20.633Z,32.28
2022-08-20T11:19:21.585Z,31.83
2022-08-20T11:22:45.636Z,31.66
2022-08-20T11:25:58.721Z,32.69
2022-08-20T11:29:12.654Z,30.22
2022-08-20T11:32:12.669Z,32.71
2022-08-20T11:35:49.709Z,32.21
2022-08-20T11:38:49.662Z,31.86
2022-08-20T11:42:15.783Z,32.20
2022-08-20T11:45:27.704Z,31.83
2022-08-20T11:48:40.686Z,31.53
2022-08-20T11:51:49.378Z,31.14
2022-08-20T11:54:55.147Z,31.71
2022-08-20T11:58:10.733Z,31.22
2022-08-20T12:01:22.708Z,30.36
2022-08-20T12:04:35.206Z,29.63
2022-08-20T12:07:46.792Z,30.75
2022-08-20T12:10:58.774Z,30.36
2022-08-20T12:14:12.768Z,30.00
2022-08-20T12:17:36.776Z,29.82
2022-08-20T12:20:48.797Z,30.17
2022-08-20T12:24:12.812Z,28.18
2022-08-20T12:27:32.822Z,28.18
2022-08-20T12:30:58.831Z,29.94
2022-08-20T12:33:58.797Z,29.42
2022-08-20T12:37:24.822Z,28.72
2022-08-20T12:40:36.828Z,29.07
2022-08-20T12:44:00.858Z,27.93
2022-08-20T12:47:14.870Z,27.57
2022-08-20T12:50:38.856Z,27.49
2022-08-20T12:53:50.942Z,28.17
2022-08-20T12:57:03.883Z,26.89
2022-08-20T13:00:03.953Z,27.46
2022-08-20T13:03:32.150Z,28.71
2022-08-20T13:06:41.902Z,26.77
2022-08-20T13:09:54.923Z,28.06
2022-08-20T13:12:55.129Z,27.07
2022-08-20T13:16:06.959Z,26.71
2022-08-20T13:19:20.998Z,26.82
2022-08-20T13:22:32.981Z,26.57
2022-08-20T13:25:45.957Z,26.53
2022-08-20T13:28:58.982Z,26.37
2022-08-20T13:32:11.037Z,26.64
2022-08-20T13:35:37.042Z,25.75
2022-08-20T13:38:49.039Z,26.51
2022-08-20T13:42:13.064Z,27.79
2022-08-20T13:45:14.026Z,27.28
2022-08-20T13:48:27.085Z,27.30
2022-08-20T13:51:41.055Z,26.46
2022-08-20T13:54:53.062Z,25.60
2022-08-20T13:58:05.212Z,26.16
2022-08-20T14:01:29.165Z,27.04
2022-08-20T14:04:42.098Z,26.30
2022-08-20T14:07:55.108Z,25.63
2022-08-20T14:11:20.126Z,26.40
2022-08-20T14:14:21.110Z,26.61
2022-08-20T14:17:45.144Z,25.82
2022-08-20T14:20:57.220Z,26.05
2022-08-20T14:24:24.113Z,26.08
2022-08-20T14:27:36.148Z,27.12
2022-08-20T14:30:53.302Z,26.29
2022-08-20T14:33:50.184Z,27.02
2022-08-20T14:37:03.219Z,26.57
2022-08-20T14:40:30.226Z,26.46
2022-08-20T14:43:44.201Z,26.26
2022-08-20T14:46:45.229Z,25.81
2022-08-20T14:50:09.296Z,25.98
2022-08-20T14:53:21.292Z,26.35
2022-08-20T14:56:47.236Z,25.73
2022-08-20T14:59:59.345Z,25.68
2022-08-20T15:03:12.260Z,26.15
2022-08-20T15:06:24.413Z,25.71
2022-08-20T15:09:49.294Z,25.75
2022-08-20T15:13:04.322Z,26.20
2022-08-20T15:16:17.313Z,25.07
2022-08-20T15:19:29.377Z,25.05
2022-08-20T15:22:42.349Z,24.51
2022-08-20T15:25:54.373Z,24.60
2022-08-20T15:29:23.654Z,23.70
2022-08-20T15:32:35.356Z,25.33
2022-08-20T15:35:48.386Z,25.52
2022-08-20T15:39:00.381Z,25.58
2022-08-20T15:42:12.458Z,25.53
2022-08-20T15:45:37.410Z,26.68
2022-08-20T15:49:01.387Z,26.85
2022-08-20T15:52:13.480Z,27.18
2022-08-20T15:55:37.491Z,27.62
2022-08-20T15:58:50.410Z,26.81
2022-08-20T16:02:17.445Z,27.60
2022-08-20T16:05:43.445Z,27.43
2022-08-20T16:08:58.444Z,27.55
2022-08-20T16:12:22.450Z,27.46
2022-08-20T16:15:34.449Z,25.44
2022-08-20T16:19:00.623Z,27.79
2022-08-20T16:22:12.498Z,27.32
2022-08-20T16:25:36.513Z,27.65
2022-08-20T16:28:48.484Z,28.05
2022-08-20T16:32:13.721Z,27.72
2022-08-20T16:35:29.908Z,28.12
2022-08-20T16:38:53.809Z,28.01
2022-08-20T16:42:05.824Z,28.09
2022-08-20T16:45:30.572Z,28.47
2022-08-20T16:48:42.652Z,28.05
2022-08-20T16:52:08.684Z,28.25
2022-08-20T16:55:09.788Z,27.91
2022-08-20T16:58:34.625Z,28.10
2022-08-20T17:01:46.615Z,28.59
2022-08-20T17:05:10.658Z,28.80
2022-08-20T17:08:25.950Z,27.79
2022-08-20T17:11:50.694Z,28.79
2022-08-20T17:15:07.628Z,29.08
2022-08-20T17:18:46.702Z,28.86
2022-08-20T17:21:58.638Z,27.62
2022-08-20T17:25:24.761Z,29.50
2022-08-20T17:28:37.673Z,29.02
2022-08-20T17:32:01.715Z,29.36
2022-08-20T17:35:13.685Z,29.62
2022-08-20T17:38:46.757Z,29.59
2022-08-20T17:42:00.742Z,29.49
2022-08-20T17:45:24.745Z,29.67
2022-08-20T17:48:35.749Z,29.66
2022-08-20T17:52:00.746Z,29.75
2022-08-20T17:55:12.777Z,29.89
2022-08-20T17:58:38.766Z,29.96
2022-08-20T18:01:39.784Z,30.03
2022-08-20T18:05:03.804Z,30.18
2022-08-20T18:08:19.814Z,30.32
2022-08-20T18:11:43.836Z,30.51
2022-08-20T18:15:00.844Z,30.56
2022-08-20T18:18:26.844Z,30.84
2022-08-20T18:22:06.861Z,100.00
2022-08-20T18:25:30.883Z,31.23
2022-08-20T18:28:42.867Z,31.23
2022-08-20T18:32:10.865Z,32.49
2022-08-20T18:35:32.906Z,33.12
